Time;durP1;ratioP1;P1;durP2;ratioP2;P2;SDS_P1;SDS_P2;PMS_P1;PMS_P2;Temp;Humidity;BMP_temperature;BMP_pressure;BME280_temperature;BME280_humidity;BME280_pressure;Samples;Min_cycle;Max_cycle;Signal;HPM_P1;HPM_P2
2023/04/29 00:00:07;;;;;;;1.50;0.98;;;18.60;75.40;;;;;;5038839;27;45330;-71
2023/04/29 00:02:34;;;;;;;3.28;1.42;;;18.60;75.60;;;;;;5041814;28;45411;-70
2023/04/29 00:05:03;;;;;;;1.38;1.10;;;18.60;75.50;;;;;;5039026;28;45638;-70
2023/04/29 00:07:31;;;;;;;2.00;1.40;;;18.60;75.30;;;;;;5031423;27;45579;-71
2023/04/29 00:09:59;;;;;;;2.65;1.73;;;18.60;75.00;;;;;;5038967;28;45624;-70
2023/04/29 00:12:27;;;;;;;2.22;1.85;;;18.60;74.90;;;;;;5038726;28;45381;-70
2023/04/29 00:14:53;;;;;;;3.20;1.95;;;18.60;74.90;;;;;;5038099;28;45451;-70
2023/04/29 00:17:20;;;;;;;2.22;1.80;;;18.60;74.80;;;;;;5038407;28;48034;-70
2023/04/29 00:19:47;;;;;;;2.88;1.80;;;18.60;74.70;;;;;;5038682;28;45404;-70
2023/04/29 00:22:14;;;;;;;3.85;2.10;;;18.60;74.60;;;;;;5038415;28;45299;-70
2023/04/29 00:24:41;;;;;;;4.15;2.10;;;18.60;74.50;;;;;;5037931;28;45332;-70
2023/04/29 00:27:10;;;;;;;4.03;2.50;;;18.60;74.30;;;;;;5041001;28;46286;-70
2023/04/29 00:29:37;;;;;;;3.13;2.00;;;18.50;74.20;;;;;;5041627;28;45416;-70
2023/04/29 00:32:04;;;;;;;2.75;2.08;;;18.50;74.30;;;;;;5041316;28;45341;-71
2023/04/29 00:34:31;;;;;;;4.82;2.40;;;18.60;74.50;;;;;;5041951;28;45247;-70
2023/04/29 00:36:58;;;;;;;3.30;2.55;;;18.60;74.80;;;;;;5041085;28;47638;-70
2023/04/29 00:39:25;;;;;;;4.00;2.22;;;18.60;74.80;;;;;;5040607;28;45354;-70
2023/04/29 00:41:52;;;;;;;4.10;2.75;;;18.60;74.80;;;;;;5039105;28;45372;-70
2023/04/29 00:44:20;;;;;;;4.68;2.80;;;18.60;74.80;;;;;;5041015;28;45492;-70
2023/04/29 00:46:47;;;;;;;4.72;3.08;;;18.60;74.70;;;;;;5040483;27;45511;-70
2023/04/29 00:49:14;;;;;;;5.53;3.22;;;18.60;74.60;;;;;;5041466;28;45354;-70
2023/04/29 00:51:42;;;;;;;5.68;3.72;;;18.60;74.00;;;;;;5041286;28;45514;-70
2023/04/29 00:54:10;;;;;;;5.43;3.83;;;18.60;73.90;;;;;;5044415;27;45293;-70
2023/04/29 00:56:40;;;;;;;5.53;4.03;;;18.60;73.80;;;;;;5038487;28;46587;-70
2023/04/29 00:59:08;;;;;;;6.68;4.10;;;18.60;73.90;;;;;;5040732;28;45337;-70
2023/04/29 01:01:37;;;;;;;7.07;4.22;;;18.60;73.80;;;;;;5041122;28;45249;-70
2023/04/29 01:04:06;;;;;;;5.53;3.63;;;18.50;73.60;;;;;;5040912;27;45338;-71
2023/04/29 01:06:46;;;;;;;6.13;4.15;;;18.50;73.60;;;;;;5040586;28;45441;-71
2023/04/29 01:09:26;;;;;;;6.90;4.55;;;18.50;73.50;;;;;;5041511;27;45294;-70
2023/04/29 01:12:06;;;;;;;8.43;5.13;;;18.50;73.30;;;;;;5041269;28;45430;-70
2023/04/29 01:14:34;;;;;;;8.65;5.00;;;18.50;73.10;;;;;;5037496;28;45491;-70
2023/04/29 01:17:09;;;;;;;7.68;4.32;;;18.50;73.30;;;;;;5040598;28;48284;-71
2023/04/29 01:19:44;;;;;;;7.78;4.72;;;18.50;73.60;;;;;;5041376;27;45455;-70
2023/04/29 01:22:11;;;;;;;8.35;5.13;;;18.50;73.60;;;;;;5032832;28;45474;-70
2023/04/29 01:24:39;;;;;;;7.50;5.15;;;18.50;73.70;;;;;;5040875;28;45371;-70
2023/04/29 01:27:14;;;;;;;7.95;4.75;;;18.60;73.70;;;;;;5040595;28;46254;-70
2023/04/29 01:29:46;;;;;;;8.57;4.88;;;18.60;73.80;;;;;;5038270;28;45261;-70
2023/04/29 01:32:18;;;;;;;9.15;4.97;;;18.50;73.90;;;;;;5037357;28;45345;-70
2023/04/29 01:34:52;;;;;;;9.02;5.38;;;18.60;73.80;;;;;;5040614;28;45484;-70
2023/04/29 01:37:28;;;;;;;10.00;5.68;;;18.60;73.70;;;;;;5038277;28;46070;-71
2023/04/29 01:40:05;;;;;;;9.55;5.55;;;18.60;73.50;;;;;;5040768;28;46441;-70
2023/04/29 01:42:39;;;;;;;10.23;6.00;;;18.60;73.60;;;;;;5041097;28;45470;-70
2023/04/29 01:45:10;;;;;;;12.07;6.05;;;18.60;73.50;;;;;;5041536;27;45433;-71
2023/04/29 01:47:38;;;;;;;10.43;6.28;;;18.50;73.60;;;;;;5038281;28;45313;-70
2023/04/29 01:50:06;;;;;;;10.85;6.60;;;18.50;73.50;;;;;;5040099;28;45328;-70
2023/04/29 01:52:33;;;;;;;8.55;5.65;;;18.50;73.50;;;;;;5040663;28;45396;-70
2023/04/29 01:55:02;;;;;;;8.90;5.75;;;18.50;73.50;;;;;;5040091;28;45447;-70
2023/04/29 01:57:29;;;;;;;10.88;6.13;;;18.50;73.50;;;;;;5040187;28;46622;-71
2023/04/29 01:59:56;;;;;;;9.38;5.70;;;18.50;73.60;;;;;;5040728;28;45862;-70
2023/04/29 02:02:24;;;;;;;10.27;5.90;;;18.50;73.80;;;;;;5040853;28;45386;-70
2023/04/29 02:04:50;;;;;;;10.15;5.35;;;18.60;73.90;;;;;;5040058;28;45255;-70
2023/04/29 02:07:18;;;;;;;9.70;5.68;;;18.60;74.00;;;;;;5039983;28;46290;-70
2023/04/29 02:09:44;;;;;;;12.65;6.20;;;18.60;74.20;;;;;;5040555;28;45378;-70
2023/04/29 02:12:12;;;;;;;8.57;5.25;;;18.60;74.10;;;;;;5040316;28;45306;-70
2023/04/29 02:14:39;;;;;;;10.05;5.38;;;18.60;74.00;;;;;;5039827;28;45318;-70
2023/04/29 02:17:06;;;;;;;13.13;6.32;;;18.60;74.20;;;;;;5040014;28;47083;-70
2023/04/29 02:19:33;;;;;;;10.88;6.32;;;18.60;74.00;;;;;;5040391;28;45339;-71
2023/04/29 02:22:00;;;;;;;11.93;6.05;;;18.60;73.60;;;;;;5036785;28;45357;-70
2023/04/29 02:24:26;;;;;;;13.32;7.40;;;18.60;73.60;;;;;;5039338;28;45302;-70
2023/04/29 02:26:53;;;;;;;12.70;6.85;;;18.50;73.50;;;;;;5033612;28;46627;-71
2023/04/29 02:29:21;;;;;;;10.15;6.50;;;18.60;73.60;;;;;;5031487;28;45276;-70
2023/04/29 02:31:48;;;;;;;12.82;7.53;;;18.50;73.50;;;;;;5040321;28;45241;-71
2023/04/29 02:34:15;;;;;;;12.18;6.53;;;18.50;73.40;;;;;;5039958;27;45507;-69
2023/04/29 02:36:41;;;;;;;13.73;7.28;;;18.50;73.40;;;;;;5041559;28;46605;-70
2023/04/29 02:39:08;;;;;;;12.68;7.38;;;18.50;73.40;;;;;;5040683;28;45486;-70
2023/04/29 02:41:35;;;;;;;11.88;6.40;;;18.50;73.50;;;;;;5040093;28;45372;-70
2023/04/29 02:44:02;;;;;;;12.05;6.55;;;18.50;74.00;;;;;;5039405;28;45225;-70
2023/04/29 02:46:32;;;;;;;13.70;7.07;;;18.50;74.30;;;;;;5037744;28;46083;-70
2023/04/29 02:48:59;;;;;;;12.38;7.45;;;18.50;74.40;;;;;;5039118;28;45373;-70
2023/04/29 02:51:26;;;;;;;12.45;7.35;;;18.50;74.50;;;;;;5039820;28;45334;-70
2023/04/29 02:53:53;;;;;;;15.05;7.40;;;18.50;74.50;;;;;;5039645;28;45439;-70
2023/04/29 02:56:20;;;;;;;14.98;7.68;;;18.40;74.50;;;;;;5035648;28;45413;-71
2023/04/29 02:58:47;;;;;;;15.43;7.63;;;18.50;74.60;;;;;;5039654;27;45408;-70
2023/04/29 03:01:13;;;;;;;12.50;6.80;;;18.40;74.40;;;;;;5039609;28;45433;-70
2023/04/29 03:03:42;;;;;;;15.73;8.05;;;18.40;74.40;;;;;;5039915;28;45258;-70
2023/04/29 03:06:08;;;;;;;13.45;7.40;;;18.40;74.20;;;;;;5039132;28;46686;-70
2023/04/29 03:08:35;;;;;;;13.45;7.70;;;18.40;74.00;;;;;;5039889;28;45356;-70
2023/04/29 03:11:02;;;;;;;12.90;6.47;;;18.40;73.80;;;;;;5039643;28;45487;-70
2023/04/29 03:13:29;;;;;;;14.30;6.97;;;18.40;73.70;;;;;;5035757;28;45252;-70
2023/04/29 03:15:57;;;;;;;11.25;6.57;;;18.40;73.70;;;;;;5038473;28;48039;-70
2023/04/29 03:18:24;;;;;;;14.85;7.32;;;18.40;73.60;;;;;;5039757;28;45345;-70
2023/04/29 03:20:52;;;;;;;14.25;8.00;;;18.40;73.50;;;;;;5039537;28;45316;-71
2023/04/29 03:23:19;;;;;;;11.68;6.68;;;18.40;73.20;;;;;;5039662;27;45438;-70
2023/04/29 03:25:46;;;;;;;13.15;7.35;;;18.40;73.20;;;;;;5038742;28;46627;-70
2023/04/29 03:28:13;;;;;;;11.27;6.35;;;18.40;73.10;;;;;;5039976;28;45352;-70
2023/04/29 03:30:41;;;;;;;12.95;7.22;;;18.40;73.30;;;;;;5037663;28;45345;-71
2023/04/29 03:33:08;;;;;;;10.98;6.45;;;18.50;73.60;;;;;;5039809;28;45332;-70
2023/04/29 03:35:34;;;;;;;13.27;7.22;;;18.50;73.70;;;;;;5038370;28;46153;-70
2023/04/29 03:38:02;;;;;;;12.55;6.28;;;18.50;73.60;;;;;;5039161;28;45326;-70
2023/04/29 03:40:29;;;;;;;12.05;6.28;;;18.50;73.60;;;;;;5039268;28;45353;-71
2023/04/29 03:42:56;;;;;;;12.48;6.50;;;18.50;73.50;;;;;;5039407;28;45552;-71
2023/04/29 03:45:23;;;;;;;11.98;6.18;;;18.50;73.40;;;;;;5037326;28;45479;-70
2023/04/29 03:47:51;;;;;;;13.05;6.97;;;18.50;73.30;;;;;;5035277;28;46473;-70
2023/04/29 03:50:18;;;;;;;11.07;5.97;;;18.50;73.30;;;;;;5038570;28;45439;-71
2023/04/29 03:52:44;;;;;;;13.20;6.75;;;18.50;72.80;;;;;;5038983;28;45352;-71
2023/04/29 03:55:13;;;;;;;9.73;6.25;;;18.50;72.80;;;;;;5038379;28;45541;-70
2023/04/29 03:57:40;;;;;;;12.38;6.88;;;18.50;72.60;;;;;;5039272;28;45560;-70
2023/04/29 04:00:08;;;;;;;12.98;7.00;;;18.50;72.60;;;;;;5041812;28;45364;-71
2023/04/29 04:02:35;;;;;;;11.05;6.05;;;18.50;72.50;;;;;;5042435;28;45265;-71
2023/04/29 04:05:01;;;;;;;9.57;6.38;;;18.50;72.40;;;;;;5037189;28;46316;-70
2023/04/29 04:07:28;;;;;;;11.55;6.47;;;18.50;72.40;;;;;;5042016;28;45372;-70
2023/04/29 04:09:55;;;;;;;10.90;5.80;;;18.50;72.40;;;;;;5041904;28;45298;-70
2023/04/29 04:12:23;;;;;;;12.68;6.70;;;18.50;72.40;;;;;;5041821;28;45398;-70
2023/04/29 04:14:50;;;;;;;11.82;6.13;;;18.50;72.50;;;;;;5040764;28;46556;-70
2023/04/29 04:17:17;;;;;;;11.18;5.90;;;18.50;72.70;;;;;;5041674;28;45333;-70
2023/04/29 04:19:43;;;;;;;10.30;5.85;;;18.50;72.80;;;;;;5042299;28;45467;-70
2023/04/29 04:22:10;;;;;;;9.27;6.38;;;18.50;72.90;;;;;;5040832;28;45441;-70
2023/04/29 04:24:37;;;;;;;8.43;5.47;;;18.50;72.90;;;;;;5041036;28;47479;-70
2023/04/29 04:27:04;;;;;;;8.85;5.53;;;18.50;73.00;;;;;;5041764;28;45419;-70
2023/04/29 04:29:32;;;;;;;9.10;5.00;;;18.50;73.00;;;;;;5042149;28;45360;-70
2023/04/29 04:31:59;;;;;;;9.07;5.55;;;18.50;72.80;;;;;;5041103;28;45418;-70
2023/04/29 04:34:26;;;;;;;10.93;5.57;;;18.50;72.40;;;;;;5041129;28;47644;-70
2023/04/29 04:36:52;;;;;;;11.60;6.00;;;18.50;72.50;;;;;;5041397;28;45282;-70
2023/04/29 04:39:19;;;;;;;8.98;5.30;;;18.50;72.40;;;;;;5038038;28;45342;-70
2023/04/29 04:41:46;;;;;;;9.35;5.25;;;18.50;72.40;;;;;;5041580;28;45359;-71
2023/04/29 04:44:13;;;;;;;8.82;5.28;;;18.50;72.40;;;;;;5040727;28;46303;-71
2023/04/29 04:46:42;;;;;;;10.10;5.15;;;18.50;72.30;;;;;;5040228;28;45322;-70
2023/04/29 04:49:08;;;;;;;9.75;5.15;;;18.50;72.20;;;;;;5039294;28;45282;-70
2023/04/29 04:51:35;;;;;;;8.93;4.82;;;18.50;72.20;;;;;;5040334;28;45516;-70
2023/04/29 04:54:02;;;;;;;8.30;4.57;;;18.50;72.20;;;;;;5040204;28;45395;-69
2023/04/29 04:56:29;;;;;;;6.72;4.40;;;18.50;72.30;;;;;;5039191;28;45386;-70
2023/04/29 04:58:56;;;;;;;8.18;4.97;;;18.50;72.40;;;;;;5040440;28;45316;-70
2023/04/29 05:01:23;;;;;;;5.68;3.90;;;18.50;72.40;;;;;;5040530;28;45418;-70
2023/04/29 05:03:51;;;;;;;7.10;4.45;;;18.50;72.50;;;;;;5039959;28;45384;-70
2023/04/29 05:06:17;;;;;;;7.43;4.18;;;18.50;72.60;;;;;;5040388;28;45484;-70
2023/04/29 05:08:44;;;;;;;5.82;3.95;;;18.50;72.60;;;;;;5039893;28;45405;-71
2023/04/29 05:11:17;;;;;;;5.90;3.88;;;18.50;72.60;;;;;;5040556;28;45311;-70
2023/04/29 05:13:44;;;;;;;7.75;4.57;;;18.50;72.60;;;;;;5035974;28;45339;-71
2023/04/29 05:16:11;;;;;;;6.82;3.78;;;18.50;72.50;;;;;;5039638;28;45309;-70
2023/04/29 05:18:38;;;;;;;6.75;4.20;;;18.50;72.20;;;;;;5040015;28;45225;-71
2023/04/29 05:21:06;;;;;;;5.25;3.67;;;18.50;72.10;;;;;;5039789;28;45504;-70
2023/04/29 05:23:33;;;;;;;6.38;3.88;;;18.50;72.20;;;;;;5039764;28;46425;-71
2023/04/29 05:25:59;;;;;;;6.28;3.75;;;18.50;72.10;;;;;;5039488;28;45341;-70
2023/04/29 05:28:26;;;;;;;6.10;3.60;;;18.50;72.10;;;;;;5038526;28;45260;-70
2023/04/29 05:30:53;;;;;;;4.97;2.95;;;18.50;72.10;;;;;;5037515;28;45562;-70
2023/04/29 05:33:21;;;;;;;6.10;3.70;;;18.50;72.00;;;;;;5039563;28;48037;-70
2023/04/29 05:35:48;;;;;;;5.68;3.83;;;18.50;71.90;;;;;;5039428;28;45499;-71
2023/04/29 05:38:16;;;;;;;6.30;3.70;;;18.50;71.80;;;;;;5039613;28;45425;-71
2023/04/29 05:40:42;;;;;;;4.88;3.38;;;18.50;71.90;;;;;;5039925;27;45329;-70
2023/04/29 05:43:10;;;;;;;7.07;2.90;;;18.50;72.00;;;;;;5039229;28;48215;-70
2023/04/29 05:45:36;;;;;;;4.28;3.10;;;18.50;72.20;;;;;;5035424;27;45314;-71
2023/04/29 05:48:03;;;;;;;6.35;3.50;;;18.50;72.30;;;;;;5038303;28;45461;-71
2023/04/29 05:50:30;;;;;;;3.90;3.00;;;18.50;72.10;;;;;;5002407;28;1074367;-70
2023/04/29 05:52:57;;;;;;;4.68;3.08;;;18.50;72.30;;;;;;5040537;28;47369;-70
2023/04/29 05:55:25;;;;;;;5.03;3.30;;;18.50;72.30;;;;;;5040258;28;45836;-70
2023/04/29 05:57:52;;;;;;;4.53;3.25;;;18.50;72.30;;;;;;5040541;28;45478;-70
2023/04/29 06:00:19;;;;;;;4.80;3.20;;;18.50;72.20;;;;;;5040672;28;45354;-70
2023/04/29 06:02:46;;;;;;;4.15;2.92;;;18.50;72.00;;;;;;5039483;28;46783;-70
2023/04/29 06:05:13;;;;;;;4.88;3.17;;;18.50;72.00;;;;;;5038742;28;45343;-70
2023/04/29 06:07:41;;;;;;;6.60;3.70;;;18.50;72.00;;;;;;5040439;27;45626;-70
2023/04/29 06:10:09;;;;;;;4.65;3.20;;;18.50;71.90;;;;;;5040878;28;45519;-70
2023/04/29 06:12:37;;;;;;;4.63;3.15;;;18.50;71.80;;;;;;5040471;28;47115;-70
2023/04/29 06:15:05;;;;;;;5.32;3.35;;;18.50;71.80;;;;;;5039878;28;45293;-70
2023/04/29 06:17:31;;;;;;;5.78;3.50;;;18.50;71.60;;;;;;5040627;28;45289;-70
2023/04/29 06:19:58;;;;;;;4.47;3.45;;;18.50;71.60;;;;;;5036391;27;45477;-70
2023/04/29 06:22:25;;;;;;;5.10;3.20;;;18.40;71.50;;;;;;5039289;28;46599;-70
2023/04/29 06:24:51;;;;;;;4.70;3.00;;;18.50;71.60;;;;;;5039541;28;46399;-71
2023/04/29 06:27:18;;;;;;;4.40;3.30;;;18.50;71.70;;;;;;5040330;28;45461;-70
2023/04/29 06:29:46;;;;;;;4.07;3.10;;;18.50;71.90;;;;;;5040569;28;45322;-70
2023/04/29 06:32:13;;;;;;;4.70;3.13;;;18.50;71.80;;;;;;5040421;28;47407;-70
2023/04/29 06:34:40;;;;;;;4.78;3.13;;;18.50;71.80;;;;;;5039993;28;45402;-70
2023/04/29 06:37:07;;;;;;;4.57;2.83;;;18.50;71.90;;;;;;5039062;27;45336;-71
2023/04/29 06:39:34;;;;;;;4.13;2.75;;;18.50;72.00;;;;;;5040314;27;45415;-70
2023/04/29 06:42:01;;;;;;;7.55;3.05;;;18.50;71.90;;;;;;5039590;28;47640;-71
2023/04/29 06:44:27;;;;;;;5.93;3.35;;;18.50;71.80;;;;;;5039852;28;45284;-71
2023/04/29 06:46:55;;;;;;;3.75;2.92;;;18.50;71.50;;;;;;5038821;28;45339;-70
2023/04/29 06:49:22;;;;;;;4.10;2.78;;;18.50;71.40;;;;;;5038214;28;45339;-70
2023/04/29 06:51:49;;;;;;;4.75;3.10;;;18.50;71.40;;;;;;5039688;28;47581;-70
2023/04/29 06:54:16;;;;;;;4.45;2.85;;;18.50;71.40;;;;;;5038956;28;45240;-70
2023/04/29 06:56:42;;;;;;;4.20;3.05;;;18.50;71.30;;;;;;5042134;28;45309;-70
2023/04/29 06:59:11;;;;;;;4.25;2.78;;;18.50;71.20;;;;;;5031725;28;45419;-71
2023/04/29 07:01:38;;;;;;;4.10;2.55;;;18.50;71.10;;;;;;5039722;28;47350;-70
2023/04/29 07:04:07;;;;;;;4.20;2.92;;;18.50;71.10;;;;;;5039274;28;45711;-71
2023/04/29 07:06:33;;;;;;;3.42;2.53;;;18.50;72.10;;;;;;5039310;27;45357;-70
2023/04/29 07:09:00;;;;;;;3.63;2.50;;;18.50;71.10;;;;;;5040143;28;45330;-70
2023/04/29 07:11:27;;;;;;;4.57;2.75;;;18.50;71.20;;;;;;5036208;27;46320;-71
2023/04/29 07:13:54;;;;;;;4.30;2.63;;;18.50;71.30;;;;;;5039107;28;45740;-71
2023/04/29 07:16:21;;;;;;;3.72;2.55;;;18.50;71.40;;;;;;5039641;28;45462;-70
2023/04/29 07:18:48;;;;;;;3.95;2.75;;;18.50;71.50;;;;;;5039650;28;45721;-70
2023/04/29 07:21:16;;;;;;;3.10;2.20;;;18.50;71.30;;;;;;5039409;28;47037;-70
2023/04/29 07:23:43;;;;;;;3.63;2.30;;;18.50;71.20;;;;;;5037612;28;45332;-70
2023/04/29 07:26:12;;;;;;;3.67;2.40;;;18.50;71.30;;;;;;5038748;28;45323;-71
2023/04/29 07:28:39;;;;;;;5.30;2.63;;;18.50;71.20;;;;;;5036038;28;45473;-70
2023/04/29 07:31:06;;;;;;;3.72;2.40;;;18.50;70.90;;;;;;5038784;28;46527;-70
2023/04/29 07:33:33;;;;;;;3.42;2.40;;;18.50;70.70;;;;;;5039363;28;45374;-70
2023/04/29 07:36:00;;;;;;;3.60;2.70;;;18.50;70.70;;;;;;5039075;27;45546;-70
2023/04/29 07:38:29;;;;;;;4.55;2.35;;;18.50;70.60;;;;;;5039335;28;45417;-70
2023/04/29 07:40:56;;;;;;;3.00;2.25;;;18.50;70.50;;;;;;5039110;28;47455;-71
2023/04/29 07:43:23;;;;;;;3.25;2.30;;;18.50;70.30;;;;;;5039035;28;45325;-70
2023/04/29 07:45:50;;;;;;;3.13;2.20;;;18.50;70.30;;;;;;5037119;28;45462;-70
2023/04/29 07:48:16;;;;;;;4.70;2.38;;;18.50;70.40;;;;;;5038726;28;45431;-70
2023/04/29 07:50:44;;;;;;;3.35;2.10;;;18.50;70.20;;;;;;5038098;28;47611;-70
2023/04/29 07:53:11;;;;;;;2.47;1.98;;;18.50;70.30;;;;;;5039116;28;45308;-70
2023/04/29 07:55:39;;;;;;;2.88;2.10;;;18.50;70.40;;;;;;5038577;28;45320;-71
2023/04/29 07:58:06;;;;;;;3.35;2.20;;;18.50;70.70;;;;;;5038778;27;45366;-70
2023/04/29 08:00:32;;;;;;;4.10;2.40;;;18.50;70.70;;;;;;5038895;27;45292;-71
2023/04/29 08:02:59;;;;;;;3.25;2.25;;;18.50;70.50;;;;;;5033684;28;45333;-70
2023/04/29 08:05:26;;;;;;;3.50;2.15;;;18.50;70.70;;;;;;5038653;27;45486;-70
2023/04/29 08:07:53;;;;;;;4.32;2.50;;;18.50;70.60;;;;;;5038993;28;45332;-70
2023/04/29 08:10:21;;;;;;;3.90;1.88;;;18.50;70.60;;;;;;5038965;28;47529;-70
2023/04/29 08:12:49;;;;;;;3.17;1.90;;;18.50;70.40;;;;;;5038822;28;45659;-71
2023/04/29 08:15:17;;;;;;;2.50;1.77;;;18.50;70.20;;;;;;5038154;28;45311;-71
2023/04/29 08:17:44;;;;;;;2.83;2.08;;;18.50;69.90;;;;;;5039264;28;45278;-70
2023/04/29 08:20:12;;;;;;;2.25;1.75;;;18.50;69.90;;;;;;5031379;27;45668;-70
2023/04/29 08:22:39;;;;;;;3.22;2.08;;;18.50;70.00;;;;;;5038895;28;45581;-70
2023/04/29 08:25:06;;;;;;;2.45;1.70;;;18.50;69.90;;;;;;5038239;28;45440;-70
2023/04/29 08:27:33;;;;;;;2.97;2.08;;;18.50;69.80;;;;;;5039010;28;45383;-70
2023/04/29 08:30:01;;;;;;;2.90;2.00;;;18.50;69.70;;;;;;5038354;28;47156;-70
2023/04/29 08:32:28;;;;;;;3.22;2.15;;;18.50;69.60;;;;;;5038461;28;45358;-70
2023/04/29 08:34:55;;;;;;;2.78;2.20;;;18.50;69.70;;;;;;5038195;27;45205;-70
2023/04/29 08:37:21;;;;;;;3.90;2.40;;;18.50;69.80;;;;;;5038235;28;45374;-70
2023/04/29 08:39:48;;;;;;;2.97;1.88;;;18.50;70.10;;;;;;5038302;28;46398;-70
2023/04/29 08:42:16;;;;;;;3.55;2.00;;;18.50;70.00;;;;;;5038311;28;45415;-70
2023/04/29 08:44:44;;;;;;;2.83;1.90;;;18.50;70.10;;;;;;5039265;28;45326;-71
2023/04/29 08:47:13;;;;;;;2.30;1.73;;;18.50;70.20;;;;;;5032552;28;45420;-71
2023/04/29 08:49:41;;;;;;;2.65;1.70;;;18.50;70.30;;;;;;5039179;28;48184;-70
2023/04/29 08:52:08;;;;;;;2.45;1.75;;;18.50;70.20;;;;;;5041278;28;45380;-71
2023/04/29 08:54:35;;;;;;;2.90;1.75;;;18.50;70.20;;;;;;5037506;28;45385;-71
2023/04/29 08:57:02;;;;;;;2.83;2.20;;;18.50;69.90;;;;;;5041108;28;45260;-70
2023/04/29 08:59:30;;;;;;;2.33;1.88;;;18.50;69.80;;;;;;5041687;28;45359;-70
2023/04/29 09:01:58;;;;;;;2.83;1.90;;;18.50;69.40;;;;;;5040807;28;45320;-70
2023/04/29 09:04:36;;;;;;;3.20;2.20;;;18.50;69.60;;;;;;5041103;28;45270;-70
2023/04/29 09:07:05;;;;;;;2.55;1.88;;;18.50;69.40;;;;;;5041370;28;45353;-70
2023/04/29 09:09:33;;;;;;;3.03;1.85;;;18.50;69.40;;;;;;5039152;27;45449;-70
2023/04/29 09:12:00;;;;;;;2.80;1.95;;;18.50;69.40;;;;;;5039492;28;45427;-70
2023/04/29 09:14:27;;;;;;;2.80;1.63;;;18.50;69.40;;;;;;5040429;28;45301;-70
2023/04/29 09:16:53;;;;;;;2.30;1.83;;;18.50;69.40;;;;;;5041230;28;45310;-70
2023/04/29 09:19:32;;;;;;;2.17;1.55;;;18.50;69.20;;;;;;5040815;28;46684;-70
2023/04/29 09:21:59;;;;;;;2.15;1.75;;;18.50;69.60;;;;;;5040825;28;45493;-70
2023/04/29 09:24:27;;;;;;;2.10;1.58;;;18.50;69.60;;;;;;5040785;28;45361;-70
2023/04/29 09:26:54;;;;;;;2.47;1.92;;;18.50;69.80;;;;;;5037302;28;45588;-70
2023/04/29 09:29:21;;;;;;;3.47;2.15;;;18.50;69.80;;;;;;5041180;28;47121;-70
2023/04/29 09:31:48;;;;;;;2.50;2.00;;;18.50;69.60;;;;;;5043361;28;45286;-70
2023/04/29 09:34:15;;;;;;;3.33;1.75;;;18.50;69.70;;;;;;5040571;28;45410;-70
2023/04/29 09:36:45;;;;;;;3.70;2.17;;;18.50;69.60;;;;;;5041191;28;45920;-70
2023/04/29 09:39:14;;;;;;;2.63;1.70;;;18.50;69.60;;;;;;5040370;28;46667;-70
2023/04/29 09:41:43;;;;;;;2.72;2.05;;;18.50;69.40;;;;;;5040802;28;45434;-70
2023/04/29 09:44:11;;;;;;;4.57;2.65;;;18.50;69.30;;;;;;5029116;28;45540;-71
2023/04/29 09:46:38;;;;;;;3.88;2.10;;;18.50;69.20;;;;;;5039514;28;45342;-70
2023/04/29 09:49:22;;;;;;;2.80;2.50;;;18.50;69.00;;;;;;5040524;28;47275;-70
2023/04/29 09:51:54;;;;;;;4.72;3.10;;;18.50;69.10;;;;;;5041101;28;45403;-71
2023/04/29 09:54:22;;;;;;;3.20;2.35;;;18.50;68.80;;;;;;5040432;28;45456;-70
2023/04/29 09:56:50;;;;;;;4.78;2.63;;;18.50;68.80;;;;;;5039675;27;45369;-70
2023/04/29 09:59:17;;;;;;;4.88;2.40;;;18.50;68.90;;;;;;5039849;28;48045;-70
2023/04/29 10:01:44;;;;;;;5.13;2.92;;;18.50;68.60;;;;;;5032593;28;45380;-70
2023/04/29 10:04:11;;;;;;;3.80;2.72;;;18.50;68.70;;;;;;5032831;28;45443;-70
2023/04/29 10:06:41;;;;;;;5.65;2.67;;;18.50;69.00;;;;;;5040462;28;45339;-70
2023/04/29 10:09:16;;;;;;;4.82;2.90;;;18.50;69.10;;;;;;5040615;28;45326;-70
2023/04/29 10:11:43;;;;;;;3.67;2.50;;;18.50;69.30;;;;;;5040678;28;45324;-70
2023/04/29 10:14:15;;;;;;;3.97;2.70;;;18.50;69.20;;;;;;5040118;28;45354;-70
2023/04/29 10:16:47;;;;;;;3.67;2.78;;;18.50;69.10;;;;;;5040453;28;45499;-71
2023/04/29 10:19:19;;;;;;;4.78;2.45;;;18.50;69.20;;;;;;5036564;27;45235;-70
2023/04/29 10:21:48;;;;;;;4.30;2.72;;;18.50;69.10;;;;;;5040203;28;45944;-70
2023/04/29 10:24:18;;;;;;;6.80;2.92;;;18.50;68.90;;;;;;5042385;28;45363;-71
2023/04/29 10:26:46;;;;;;;5.00;3.33;;;18.50;68.90;;;;;;5040319;28;45485;-71
2023/04/29 10:29:15;;;;;;;4.85;3.00;;;18.50;68.70;;;;;;5039881;28;48007;-70
2023/04/29 10:31:43;;;;;;;4.53;2.95;;;18.50;68.70;;;;;;5039993;28;45263;-70
2023/04/29 10:34:12;;;;;;;6.75;3.30;;;18.50;68.80;;;;;;5030824;28;45532;-70
2023/04/29 10:36:40;;;;;;;6.78;3.40;;;18.50;68.70;;;;;;5036899;27;45269;-70
2023/04/29 10:39:13;;;;;;;4.47;3.17;;;18.50;68.60;;;;;;5039805;28;47470;-70
2023/04/29 10:41:45;;;;;;;4.70;3.20;;;18.50;68.50;;;;;;5039766;28;45949;-70
2023/04/29 10:44:12;;;;;;;4.97;3.22;;;18.50;68.60;;;;;;5039987;27;45308;-70
2023/04/29 10:46:39;;;;;;;5.90;3.17;;;18.50;68.70;;;;;;5038798;28;45185;-70
2023/04/29 10:49:10;;;;;;;5.13;3.22;;;18.50;68.60;;;;;;5037359;28;48101;-70
2023/04/29 10:51:40;;;;;;;7.68;3.50;;;18.50;68.90;;;;;;5037253;28;45285;-71
2023/04/29 10:54:09;;;;;;;4.75;3.30;;;18.50;69.00;;;;;;5040088;28;45296;-70
2023/04/29 10:56:39;;;;;;;5.55;3.25;;;18.50;68.90;;;;;;5039598;27;45334;-71
2023/04/29 10:59:11;;;;;;;5.25;3.10;;;18.50;68.90;;;;;;5039563;28;48221;-70
2023/04/29 11:01:45;;;;;;;4.68;3.03;;;18.50;68.90;;;;;;5039458;28;45396;-70
2023/04/29 11:04:12;;;;;;;4.50;2.90;;;18.50;69.00;;;;;;5039874;28;45397;-70
2023/04/29 11:06:41;;;;;;;4.15;3.05;;;18.50;69.00;;;;;;5039176;28;45568;-70
2023/04/29 11:09:13;;;;;;;6.15;3.42;;;18.50;69.90;;;;;;5038788;28;45754;-70
2023/04/29 11:11:47;;;;;;;5.43;3.17;;;18.50;68.60;;;;;;5039444;27;45271;-70
2023/04/29 11:14:22;;;;;;;6.07;3.28;;;18.50;68.80;;;;;;5032404;28;45358;-70
2023/04/29 11:16:51;;;;;;;6.22;3.85;;;18.50;68.50;;;;;;5041552;28;45372;-71
2023/04/29 11:19:18;;;;;;;5.85;3.65;;;18.50;68.50;;;;;;5039482;28;47961;-70
2023/04/29 11:21:46;;;;;;;4.78;3.25;;;18.50;68.50;;;;;;5039350;27;45317;-71
2023/04/29 11:24:16;;;;;;;5.47;3.60;;;18.50;68.50;;;;;;5039247;27;45341;-70
2023/04/29 11:26:43;;;;;;;5.00;3.42;;;18.50;68.50;;;;;;5036245;27;45235;-70
2023/04/29 11:29:10;;;;;;;6.28;3.85;;;18.50;68.50;;;;;;5031443;28;45503;-70
2023/04/29 11:31:38;;;;;;;6.65;3.45;;;18.50;68.30;;;;;;5038989;28;45438;-70
2023/04/29 11:34:06;;;;;;;4.90;2.92;;;18.50;68.50;;;;;;5038997;27;45422;-70
2023/04/29 11:36:33;;;;;;;6.25;3.53;;;18.50;68.60;;;;;;5038982;28;45270;-70
2023/04/29 11:39:00;;;;;;;6.13;3.58;;;18.50;68.70;;;;;;5038680;28;46846;-71
2023/04/29 11:41:27;;;;;;;6.18;3.47;;;18.50;68.70;;;;;;5039196;28;45382;-71
2023/04/29 11:43:58;;;;;;;5.60;3.75;;;18.50;68.80;;;;;;5035437;27;45293;-70
2023/04/29 11:46:27;;;;;;;3.92;2.95;;;18.50;68.90;;;;;;5038179;28;45412;-71
2023/04/29 11:48:59;;;;;;;5.85;3.55;;;18.50;68.80;;;;;;5036365;28;45403;-70
2023/04/29 11:51:25;;;;;;;6.10;3.40;;;18.50;68.80;;;;;;5038875;28;45994;-70
2023/04/29 11:53:52;;;;;;;5.25;3.75;;;18.60;68.70;;;;;;5038972;28;45417;-70
2023/04/29 11:56:24;;;;;;;5.65;3.63;;;18.60;68.70;;;;;;5038895;28;45209;-70
2023/04/29 11:58:54;;;;;;;6.63;4.18;;;18.60;68.70;;;;;;5038741;28;47311;-71
2023/04/29 12:01:21;;;;;;;6.40;4.03;;;18.60;68.60;;;;;;5033362;28;45397;-70
2023/04/29 12:03:49;;;;;;;8.38;4.47;;;18.50;68.40;;;;;;5039000;28;45262;-70
2023/04/29 12:06:17;;;;;;;7.15;4.22;;;18.60;68.50;;;;;;5041067;28;45611;-70
2023/04/29 12:08:47;;;;;;;7.30;4.63;;;18.50;68.40;;;;;;5039337;28;45377;-70
2023/04/29 12:11:14;;;;;;;11.05;4.78;;;18.50;68.50;;;;;;5039009;28;45370;-70
2023/04/29 12:13:41;;;;;;;7.53;4.93;;;18.50;68.50;;;;;;5038798;28;45450;-70
2023/04/29 12:16:08;;;;;;;6.32;4.43;;;18.50;68.40;;;;;;5038208;28;45313;-70
2023/04/29 12:18:35;;;;;;;6.88;4.18;;;18.50;68.60;;;;;;5035485;28;46597;-70
2023/04/29 12:21:02;;;;;;;6.53;4.45;;;18.60;68.90;;;;;;5041898;28;45612;-70
2023/04/29 12:23:30;;;;;;;6.75;4.70;;;18.60;68.80;;;;;;5041816;28;45412;-70
2023/04/29 12:25:59;;;;;;;5.72;4.03;;;18.60;68.80;;;;;;5041475;28;45443;-70
2023/04/29 12:28:27;;;;;;;8.10;4.47;;;18.60;68.90;;;;;;5041312;28;45300;-70
2023/04/29 12:30:54;;;;;;;5.97;4.25;;;18.60;68.90;;;;;;5041339;28;45412;-70
2023/04/29 12:33:22;;;;;;;7.18;4.28;;;18.60;68.80;;;;;;5041562;28;45375;-70
2023/04/29 12:35:50;;;;;;;5.93;4.40;;;18.60;68.80;;;;;;5041649;28;45575;-70
2023/04/29 12:38:20;;;;;;;6.47;4.78;;;18.60;68.70;;;;;;5041354;28;46846;-70
2023/04/29 12:40:49;;;;;;;7.22;4.93;;;18.60;68.60;;;;;;5041421;28;45280;-70
2023/04/29 12:43:17;;;;;;;6.40;4.57;;;18.60;68.60;;;;;;5041539;28;45270;-70
2023/04/29 12:45:44;;;;;;;9.02;5.82;;;18.60;68.50;;;;;;5039752;28;45332;-70
2023/04/29 12:48:12;;;;;;;7.97;5.32;;;18.60;68.50;;;;;;5033272;28;46612;-70